createdAt,value
2023-06-17T00:03:11.035Z,92.83
2023-06-17T00:08:10.843Z,93.47
2023-06-17T00:13:10.260Z,92.07
2023-06-17T00:18:09.086Z,93.78
2023-06-17T00:23:09.668Z,91.99
2023-06-17T00:28:08.638Z,94.01
2023-06-17T00:33:08.135Z,93.48
2023-06-17T00:38:07.145Z,93.73
2023-06-17T00:43:06.145Z,94.22
2023-06-17T00:48:06.347Z,95.45
2023-06-17T00:53:06.647Z,94.81
2023-06-17T00:58:05.846Z,98.13
2023-06-17T01:03:06.645Z,94.80
2023-06-17T01:08:21.214Z,97.30
2023-06-17T01:13:20.538Z,96.59
2023-06-17T01:18:21.416Z,97.02
2023-06-17T01:23:22.570Z,94.24
2023-06-17T01:28:25.698Z,95.99
2023-06-17T01:33:25.625Z,96.12
2023-06-17T01:38:40.755Z,97.08
2023-06-17T01:43:42.419Z,95.00
2023-06-17T01:48:42.556Z,95.04
2023-06-17T01:53:41.487Z,96.07
2023-06-17T01:58:41.491Z,97.97
2023-06-17T02:03:44.066Z,96.20
2023-06-17T02:08:43.424Z,95.52
2023-06-17T02:13:42.455Z,95.47
2023-06-17T02:18:41.361Z,94.98
2023-06-17T02:23:42.024Z,96.10
2023-06-17T02:28:43.853Z,97.06
2023-06-17T02:33:42.688Z,96.23
2023-06-17T02:38:43.351Z,95.63
2023-06-17T02:43:42.875Z,95.27
2023-06-17T02:48:41.718Z,96.13
2023-06-17T02:53:41.821Z,95.54
2023-06-17T02:58:44.570Z,93.43
2023-06-17T03:03:44.578Z,92.78
2023-06-17T03:08:43.712Z,92.80
2023-06-17T03:13:42.779Z,94.12
2023-06-17T03:18:52.469Z,93.67
2023-06-17T03:23:52.010Z,93.62
2023-06-17T03:28:52.336Z,92.68
2023-06-17T03:33:53.180Z,89.79
2023-06-17T03:38:52.725Z,91.09
2023-06-17T03:43:52.534Z,89.15
2023-06-17T03:48:52.059Z,93.42
2023-06-17T03:53:51.893Z,90.96
2023-06-17T03:58:51.384Z,89.56
2023-06-17T04:03:52.370Z,90.02
2023-06-17T04:08:51.803Z,90.78
2023-06-17T04:13:50.762Z,89.75
2023-06-17T04:18:50.127Z,90.41
2023-06-17T04:23:48.938Z,89.31
2023-06-17T04:28:49.624Z,86.25
2023-06-17T04:33:49.349Z,85.84
2023-06-17T04:38:51.194Z,77.21
2023-06-17T04:43:50.803Z,72.77
2023-06-17T04:48:51.743Z,71.92
2023-06-17T04:53:51.636Z,72.70
2023-06-17T04:58:50.698Z,71.64
2023-06-17T05:03:49.732Z,71.77
2023-06-17T05:08:48.686Z,71.40
2023-06-17T05:13:48.099Z,71.65
2023-06-17T05:18:47.373Z,74.17
2023-06-17T05:23:46.476Z,77.09
2023-06-17T05:28:45.494Z,78.85
2023-06-17T05:33:44.630Z,78.45
2023-06-17T05:38:43.873Z,81.62
2023-06-17T05:43:44.164Z,82.96
2023-06-17T05:48:43.283Z,83.76
2023-06-17T05:53:45.110Z,80.84
2023-06-17T05:58:46.019Z,79.58
2023-06-17T06:03:54.512Z,77.88
2023-06-17T06:08:53.553Z,76.79
2023-06-17T06:13:52.749Z,76.70
2023-06-17T06:18:52.253Z,73.80
2023-06-17T06:23:51.519Z,72.59
2023-06-17T06:28:50.856Z,73.50
2023-06-17T06:33:51.081Z,72.84
2023-06-17T06:38:50.235Z,72.69
2023-06-17T06:43:49.867Z,72.17
2023-06-17T06:48:51.454Z,72.16
2023-06-17T06:53:50.559Z,70.69
2023-06-17T06:58:50.097Z,72.15
2023-06-17T07:03:49.346Z,70.67
2023-06-17T07:08:48.685Z,70.96
2023-06-17T07:13:47.925Z,69.62
2023-06-17T07:18:46.994Z,66.69
2023-06-17T07:23:46.152Z,66.51
2023-06-17T07:28:45.802Z,67.94
2023-06-17T07:33:44.888Z,68.69
2023-06-17T07:38:44.278Z,70.55
2023-06-17T07:43:43.585Z,71.60
2023-06-17T07:48:45.184Z,70.28
2023-06-17T07:53:44.162Z,69.63
2023-06-17T07:58:45.228Z,70.54
2023-06-17T08:03:44.610Z,69.06
2023-06-17T08:08:44.466Z,68.36
2023-06-17T08:13:43.576Z,68.13
2023-06-17T08:18:42.493Z,68.68
2023-06-17T08:23:42.536Z,67.84
2023-06-17T08:28:41.553Z,68.88
2023-06-17T08:33:41.080Z,69.38
2023-06-17T08:38:40.293Z,69.18
2023-06-17T08:43:40.764Z,69.61
2023-06-17T08:48:41.518Z,69.70
2023-06-17T08:53:45.279Z,69.11
2023-06-17T08:58:45.298Z,68.08
2023-06-17T09:03:44.931Z,66.87
2023-06-17T09:08:44.173Z,66.91
2023-06-17T09:13:43.435Z,66.95
2023-06-17T09:18:42.663Z,64.57
2023-06-17T09:23:41.623Z,65.20
2023-06-17T09:28:41.212Z,62.83
2023-06-17T09:33:45.053Z,63.19
2023-06-17T09:38:44.746Z,64.91
2023-06-17T09:43:50.286Z,66.03
2023-06-17T09:48:51.908Z,65.59
2023-06-17T09:53:54.237Z,64.11
2023-06-17T09:58:54.737Z,64.60
2023-06-17T10:03:53.699Z,62.40
2023-06-17T10:08:54.084Z,60.96
2023-06-17T10:14:33.789Z,58.39
2023-06-17T10:19:36.190Z,59.34
2023-06-17T10:24:36.006Z,57.94
2023-06-17T10:29:35.636Z,59.56
2023-06-17T10:34:34.564Z,59.58
2023-06-17T10:39:33.627Z,59.42
2023-06-17T10:44:36.067Z,59.74
2023-06-17T10:49:42.492Z,55.77
2023-06-17T10:54:53.557Z,56.36
2023-06-17T10:59:52.682Z,56.24
2023-06-17T11:04:53.089Z,57.52
2023-06-17T11:09:52.719Z,54.58
2023-06-17T11:14:51.777Z,53.96
2023-06-17T11:19:50.746Z,52.69
2023-06-17T11:24:49.733Z,48.56
2023-06-17T11:29:49.072Z,49.34
2023-06-17T11:34:48.113Z,45.65
2023-06-17T11:39:47.029Z,45.31
2023-06-17T11:44:46.128Z,44.99
2023-06-17T11:49:45.586Z,46.35
2023-06-17T11:54:51.329Z,46.77
2023-06-17T11:59:52.295Z,45.60
2023-06-17T12:04:51.648Z,45.24
2023-06-17T12:09:55.303Z,48.15
2023-06-17T12:15:15.071Z,49.59
2023-06-17T12:20:21.898Z,49.17
2023-06-17T12:25:21.520Z,47.51
2023-06-17T12:30:20.696Z,48.71
2023-06-17T12:35:20.766Z,49.29
2023-06-17T12:40:20.215Z,51.29
2023-06-17T12:45:19.638Z,54.39
2023-06-17T12:50:18.844Z,54.57
2023-06-17T12:55:18.642Z,53.43
2023-06-17T13:00:18.975Z,52.96
2023-06-17T13:05:18.333Z,53.96
2023-06-17T13:10:17.772Z,52.95
2023-06-17T13:15:16.867Z,51.70
2023-06-17T13:20:16.878Z,51.03
2023-06-17T13:25:17.553Z,51.54
2023-06-17T13:30:16.645Z,49.79
2023-06-17T13:35:16.795Z,50.22
2023-06-17T13:40:16.429Z,50.15
2023-06-17T13:45:15.950Z,46.93
2023-06-17T13:50:15.201Z,46.61
2023-06-17T13:55:14.579Z,47.70
2023-06-17T14:00:14.085Z,49.62
2023-06-17T14:05:13.749Z,53.55
2023-06-17T14:10:13.041Z,56.27
2023-06-17T14:15:12.255Z,58.80
2023-06-17T14:20:12.059Z,63.94
2023-06-17T14:25:11.467Z,66.94
2023-06-17T14:30:13.174Z,70.41
2023-06-17T14:35:14.978Z,71.41
2023-06-17T14:40:14.932Z,65.25
2023-06-17T14:45:17.276Z,57.28
2023-06-17T14:50:16.629Z,54.65
2023-06-17T14:55:16.437Z,55.43
2023-06-17T15:00:16.069Z,54.92
2023-06-17T15:05:16.067Z,51.58
2023-06-17T15:10:15.629Z,51.68
2023-06-17T15:15:15.495Z,51.68
2023-06-17T15:20:14.514Z,52.22
2023-06-17T15:25:13.479Z,50.90
2023-06-17T15:30:13.124Z,53.95
2023-06-17T15:35:12.075Z,56.05
2023-06-17T15:40:12.018Z,58.37
2023-06-17T15:45:11.798Z,57.09
2023-06-17T15:50:11.423Z,57.10
2023-06-17T15:55:11.671Z,57.68
2023-06-17T16:00:11.075Z,61.36
2023-06-17T16:05:14.659Z,61.63
2023-06-17T16:10:13.945Z,63.07
2023-06-17T16:15:13.069Z,63.96
2023-06-17T16:20:12.636Z,64.27
2023-06-17T16:25:11.740Z,62.54
2023-06-17T16:30:11.193Z,66.13
2023-06-17T16:35:10.347Z,68.35
2023-06-17T16:40:09.600Z,67.98
2023-06-17T16:45:09.034Z,66.84
2023-06-17T16:50:08.482Z,66.59
2023-06-17T16:55:09.584Z,63.03
2023-06-17T17:00:09.014Z,49.86
2023-06-17T17:05:08.284Z,43.96
2023-06-17T17:10:07.389Z,42.65
2023-06-17T17:15:09.679Z,37.99
2023-06-17T17:20:09.335Z,37.13
2023-06-17T17:25:08.564Z,34.04
2023-06-17T17:30:08.332Z,33.66
2023-06-17T17:35:07.924Z,41.35
2023-06-17T17:40:07.856Z,50.93
2023-06-17T17:45:07.686Z,56.22
2023-06-17T17:50:07.591Z,60.26
2023-06-17T17:55:07.024Z,60.95
2023-06-17T18:00:07.051Z,57.90
2023-06-17T18:05:13.190Z,58.69
2023-06-17T18:10:12.230Z,61.43
2023-06-17T18:15:11.784Z,62.13
2023-06-17T18:20:13.743Z,65.21
2023-06-17T18:25:12.708Z,66.25
2023-06-17T18:30:12.104Z,68.23
2023-06-17T18:35:11.113Z,68.54
2023-06-17T18:40:10.447Z,68.64
2023-06-17T18:45:10.312Z,71.06
2023-06-17T18:50:09.552Z,69.08
2023-06-17T18:55:09.054Z,72.65
2023-06-17T19:00:08.669Z,73.61
2023-06-17T19:05:08.050Z,76.88
2023-06-17T19:10:07.508Z,78.00
2023-06-17T19:15:10.039Z,78.25
2023-06-17T19:20:09.922Z,78.62
2023-06-17T19:25:09.441Z,79.42
2023-06-17T19:30:08.686Z,81.52
2023-06-17T19:35:07.869Z,81.94
2023-06-17T19:40:07.459Z,82.42
2023-06-17T19:45:07.348Z,82.09
2023-06-17T19:50:06.820Z,82.40
2023-06-17T19:55:06.270Z,84.67
2023-06-17T20:00:05.995Z,84.36
2023-06-17T20:05:12.501Z,80.45
2023-06-17T20:10:11.459Z,83.12
2023-06-17T20:15:11.199Z,84.28
2023-06-17T20:20:11.735Z,81.19
2023-06-17T20:25:11.785Z,84.55
2023-06-17T20:30:11.144Z,86.16
2023-06-17T20:35:10.146Z,86.79
2023-06-17T20:40:09.533Z,84.88
2023-06-17T20:45:09.378Z,85.20
2023-06-17T20:50:08.802Z,87.74
2023-06-17T20:55:08.159Z,87.11
2023-06-17T21:00:07.691Z,88.73
2023-06-17T21:05:06.761Z,88.94
2023-06-17T21:10:06.566Z,89.31
2023-06-17T21:15:06.440Z,89.73
2023-06-17T21:20:09.506Z,89.58
2023-06-17T21:25:09.271Z,86.58
2023-06-17T21:30:08.631Z,90.42
2023-06-17T21:35:07.858Z,89.58
2023-06-17T21:40:07.436Z,86.02
2023-06-17T21:45:07.082Z,86.06
2023-06-17T21:50:06.511Z,89.65
2023-06-17T21:55:05.977Z,89.91
2023-06-17T22:00:06.701Z,92.40
2023-06-17T22:05:11.245Z,90.60
2023-06-17T22:10:10.563Z,90.16
2023-06-17T22:15:09.882Z,88.84
2023-06-17T22:20:09.182Z,90.71
2023-06-17T22:25:08.446Z,88.71
2023-06-17T22:30:08.121Z,90.53
2023-06-17T22:35:07.167Z,88.14
2023-06-17T22:40:07.788Z,87.94
2023-06-17T22:45:07.622Z,89.99
2023-06-17T22:50:07.276Z,91.66
2023-06-17T22:55:06.494Z,91.41
2023-06-17T23:00:07.851Z,90.62
2023-06-17T23:05:06.956Z,90.13
2023-06-17T23:10:06.230Z,90.17
2023-06-17T23:15:05.513Z,89.61
2023-06-17T23:20:04.891Z,88.67
2023-06-17T23:25:07.831Z,90.25
2023-06-17T23:30:08.813Z,88.08
2023-06-17T23:35:07.871Z,88.45
2023-06-17T23:40:07.364Z,88.81
2023-06-17T23:45:09.454Z,87.67
2023-06-17T23:50:09.140Z,89.75
2023-06-17T23:55:08.590Z,90.21
